createdAt,value
2023-04-27T00:00:33.756Z,59.44
2023-04-27T00:01:33.814Z,59.05
2023-04-27T00:02:33.953Z,58.95
2023-04-27T00:03:34.006Z,58.66
2023-04-27T00:04:34.004Z,58.75
2023-04-27T00:05:33.892Z,58.45
2023-04-27T00:06:33.880Z,58.86
2023-04-27T00:07:33.948Z,59.43
2023-04-27T00:08:33.981Z,59.65
2023-04-27T00:09:34.009Z,59.87
2023-04-27T00:10:34.054Z,59.46
2023-04-27T00:11:34.079Z,59.30
2023-04-27T00:12:34.107Z,59.04
2023-04-27T00:13:34.075Z,59.37
2023-04-27T00:14:34.088Z,59.42
2023-04-27T00:15:34.154Z,59.46
2023-04-27T00:16:34.238Z,58.96
2023-04-27T00:17:34.220Z,58.73
2023-04-27T00:18:34.176Z,58.52
2023-04-27T00:19:34.225Z,58.65
2023-04-27T00:20:34.257Z,58.43
2023-04-27T00:21:34.292Z,58.07
2023-04-27T00:22:34.322Z,57.76
2023-04-27T00:23:34.710Z,57.68
2023-04-27T00:24:34.350Z,57.66
2023-04-27T00:25:34.373Z,57.88
2023-04-27T00:26:34.415Z,58.29
2023-04-27T00:27:34.437Z,58.16
2023-04-27T00:28:34.409Z,58.69
2023-04-27T00:29:34.414Z,58.42
2023-04-27T00:30:34.432Z,58.58
2023-04-27T00:31:34.485Z,58.50
2023-04-27T00:32:34.591Z,58.79
2023-04-27T00:33:34.553Z,58.73
2023-04-27T00:34:34.552Z,58.64
2023-04-27T00:35:34.628Z,58.66
2023-04-27T00:36:34.619Z,58.48
2023-04-27T00:37:34.654Z,58.42
2023-04-27T00:38:34.662Z,58.46
2023-04-27T00:39:34.719Z,58.13
2023-04-27T00:40:34.707Z,57.89
2023-04-27T00:41:34.713Z,57.68
2023-04-27T00:42:34.783Z,57.46
2023-04-27T00:43:34.799Z,57.81
2023-04-27T00:44:34.799Z,57.84
2023-04-27T00:45:34.814Z,57.92
2023-04-27T00:46:34.830Z,57.62
2023-04-27T00:47:34.920Z,57.65
2023-04-27T00:48:34.886Z,58.68
2023-04-27T00:49:34.879Z,58.96
2023-04-27T00:50:34.892Z,58.82
2023-04-27T00:51:34.901Z,58.71
2023-04-27T00:52:34.911Z,58.70
2023-04-27T00:53:34.912Z,58.45
2023-04-27T00:54:34.964Z,58.36
2023-04-27T00:55:34.982Z,58.08
2023-04-27T00:56:34.997Z,57.86
2023-04-27T00:57:35.054Z,57.77
2023-04-27T00:58:35.049Z,58.01
2023-04-27T00:59:35.016Z,58.00
2023-04-27T01:00:35.044Z,58.25
2023-04-27T01:01:35.089Z,58.11
2023-04-27T01:02:35.243Z,58.10
2023-04-27T01:03:35.310Z,57.89
2023-04-27T01:04:35.242Z,57.82
2023-04-27T01:05:35.142Z,57.88
2023-04-27T01:06:35.164Z,57.92
2023-04-27T01:07:35.218Z,58.24
2023-04-27T01:08:36.261Z,58.54
2023-04-27T01:09:35.235Z,58.90
2023-04-27T01:10:35.257Z,58.72
2023-04-27T01:11:35.209Z,58.70
2023-04-27T01:12:35.283Z,58.70
2023-04-27T01:13:35.256Z,58.64
2023-04-27T01:14:35.275Z,58.67
2023-04-27T01:15:35.308Z,58.72
2023-04-27T01:16:35.394Z,58.73
2023-04-27T01:17:35.401Z,58.97
2023-04-27T01:18:35.394Z,59.15
2023-04-27T01:19:35.399Z,59.28
2023-04-27T01:20:35.434Z,59.23
2023-04-27T01:21:35.426Z,59.34
2023-04-27T01:22:35.504Z,59.59
2023-04-27T01:23:35.548Z,59.48
2023-04-27T01:24:35.603Z,59.87
2023-04-27T01:25:35.595Z,59.75
2023-04-27T01:26:35.637Z,59.79
2023-04-27T01:27:35.720Z,60.17
2023-04-27T01:28:35.705Z,60.21
2023-04-27T01:29:35.735Z,60.81
2023-04-27T01:30:35.773Z,60.90
2023-04-27T01:31:35.866Z,60.79
2023-04-27T01:32:35.886Z,60.73
2023-04-27T01:33:35.860Z,60.96
2023-04-27T01:34:35.895Z,60.88
2023-04-27T01:35:35.927Z,60.72
2023-04-27T01:36:35.998Z,60.67
2023-04-27T01:37:36.027Z,60.80
2023-04-27T01:38:36.097Z,60.85
2023-04-27T01:39:36.116Z,60.77
2023-04-27T01:40:36.156Z,61.09
2023-04-27T01:41:36.223Z,61.38
2023-04-27T01:42:36.269Z,61.26
2023-04-27T01:43:36.326Z,61.30
2023-04-27T01:44:36.335Z,61.35
2023-04-27T01:45:36.388Z,61.42
2023-04-27T01:46:36.445Z,61.12
2023-04-27T01:47:36.499Z,61.21
2023-04-27T01:48:36.521Z,61.56
2023-04-27T01:49:36.518Z,61.67
2023-04-27T01:50:36.532Z,61.60
2023-04-27T01:51:36.604Z,62.06
2023-04-27T01:52:36.648Z,62.00
2023-04-27T01:53:36.648Z,61.70
2023-04-27T01:54:36.688Z,61.34
2023-04-27T01:55:36.699Z,61.12
2023-04-27T01:56:36.772Z,60.90
2023-04-27T01:57:36.845Z,60.82
2023-04-27T01:58:36.862Z,61.50
2023-04-27T01:59:36.890Z,62.07
2023-04-27T02:00:36.961Z,62.26
2023-04-27T02:01:37.027Z,62.28
2023-04-27T02:02:37.137Z,62.59
2023-04-27T02:03:37.062Z,62.45
2023-04-27T02:04:37.147Z,62.15
2023-04-27T02:05:37.039Z,62.28
2023-04-27T02:06:37.087Z,62.26
2023-04-27T02:07:37.144Z,61.92
2023-04-27T02:08:37.205Z,61.76
2023-04-27T02:09:37.230Z,61.86
2023-04-27T02:10:37.262Z,61.83
2023-04-27T02:11:37.276Z,61.75
2023-04-27T02:12:37.303Z,62.36
2023-04-27T02:13:37.318Z,62.67
2023-04-27T02:14:37.382Z,62.64
2023-04-27T02:15:37.386Z,62.28
2023-04-27T02:16:37.471Z,62.69
2023-04-27T02:17:37.553Z,62.71
2023-04-27T02:18:37.528Z,62.48
2023-04-27T02:19:37.556Z,62.28
2023-04-27T02:20:37.556Z,62.15
2023-04-27T02:21:37.642Z,62.09
2023-04-27T02:22:37.649Z,62.04
2023-04-27T02:23:37.696Z,61.88
2023-04-27T02:24:37.712Z,62.21
2023-04-27T02:25:37.764Z,62.24
2023-04-27T02:26:37.801Z,62.28
2023-04-27T02:27:37.824Z,62.20
2023-04-27T02:28:37.852Z,62.10
2023-04-27T02:29:37.903Z,62.35
2023-04-27T02:30:37.951Z,62.25
2023-04-27T02:31:37.983Z,62.47
2023-04-27T02:32:37.960Z,62.40
2023-04-27T02:33:38.021Z,62.72
2023-04-27T02:34:38.017Z,62.56
2023-04-27T02:35:38.034Z,62.35
2023-04-27T02:36:37.998Z,62.12
2023-04-27T02:37:38.068Z,62.15
2023-04-27T02:38:38.097Z,62.36
2023-04-27T02:39:38.138Z,62.05
2023-04-27T02:40:38.180Z,61.77
2023-04-27T02:41:38.270Z,61.64
2023-04-27T02:42:38.211Z,61.46
2023-04-27T02:43:38.302Z,61.78
2023-04-27T02:44:38.310Z,61.47
2023-04-27T02:45:38.353Z,60.81
2023-04-27T02:46:38.405Z,60.71
2023-04-27T02:47:38.472Z,60.63
2023-04-27T02:48:38.513Z,60.83
2023-04-27T02:49:38.559Z,61.65
2023-04-27T02:50:38.513Z,61.91
2023-04-27T02:51:38.556Z,61.90
2023-04-27T02:52:38.589Z,61.36
2023-04-27T02:53:38.600Z,61.11
2023-04-27T02:54:38.666Z,60.89
2023-04-27T02:55:38.732Z,61.18
2023-04-27T02:56:38.793Z,61.08
2023-04-27T02:57:38.852Z,61.04
2023-04-27T02:58:38.860Z,60.70
2023-04-27T02:59:38.912Z,60.46
2023-04-27T03:00:38.943Z,60.22
2023-04-27T03:01:39.104Z,60.31
2023-04-27T03:02:39.212Z,60.60
2023-04-27T03:03:39.337Z,60.89
2023-04-27T03:04:39.089Z,60.75
2023-04-27T03:05:39.069Z,61.39
2023-04-27T03:06:39.096Z,61.63
2023-04-27T03:07:39.130Z,61.34
2023-04-27T03:08:39.212Z,61.48
2023-04-27T03:09:39.219Z,61.22
2023-04-27T03:10:39.226Z,61.00
2023-04-27T03:11:39.247Z,60.78
2023-04-27T03:12:39.300Z,60.42
2023-04-27T03:13:39.303Z,60.28
2023-04-27T03:14:39.315Z,60.21
2023-04-27T03:15:39.335Z,60.03
2023-04-27T03:16:39.376Z,60.19
2023-04-27T03:17:39.373Z,60.20
2023-04-27T03:18:39.357Z,60.80
2023-04-27T03:19:39.380Z,60.87
2023-04-27T03:20:39.400Z,60.93
2023-04-27T03:21:39.407Z,60.88
2023-04-27T03:22:39.408Z,60.56
2023-04-27T03:23:39.412Z,61.21
2023-04-27T03:24:39.443Z,61.06
2023-04-27T03:25:39.505Z,61.66
2023-04-27T03:26:39.496Z,61.60
2023-04-27T03:27:39.562Z,61.90
2023-04-27T03:28:39.548Z,61.49
2023-04-27T03:29:39.576Z,61.56
2023-04-27T03:30:39.556Z,61.80
2023-04-27T03:31:39.642Z,62.10
2023-04-27T03:32:39.645Z,62.48
2023-04-27T03:33:39.678Z,63.18
2023-04-27T03:34:39.652Z,63.34
2023-04-27T03:35:39.720Z,63.82
2023-04-27T03:36:39.713Z,64.23
2023-04-27T03:37:39.752Z,64.35
2023-04-27T03:38:39.793Z,65.37
2023-04-27T03:39:39.771Z,64.62
2023-04-27T03:40:39.795Z,65.07
2023-04-27T03:41:39.841Z,64.82
2023-04-27T03:42:39.923Z,65.43
2023-04-27T03:43:39.931Z,65.21
2023-04-27T03:44:40.059Z,65.04
2023-04-27T03:45:40.077Z,64.55
2023-04-27T03:46:40.097Z,64.02
2023-04-27T03:47:40.267Z,64.74
2023-04-27T03:48:40.172Z,64.33
2023-04-27T03:49:40.235Z,64.51
2023-04-27T03:50:40.256Z,64.84
2023-04-27T03:51:40.322Z,65.15
2023-04-27T03:52:40.389Z,64.87
2023-04-27T03:53:40.372Z,65.76
2023-04-27T03:54:40.464Z,65.33
2023-04-27T03:55:40.512Z,65.29
2023-04-27T03:56:40.554Z,65.75
2023-04-27T03:57:40.655Z,65.72
2023-04-27T03:58:40.644Z,65.85
2023-04-27T03:59:40.660Z,65.49
2023-04-27T04:00:40.756Z,65.56
2023-04-27T04:01:40.858Z,65.67
2023-04-27T04:02:40.924Z,66.22
2023-04-27T04:03:40.938Z,66.16
2023-04-27T04:04:41.110Z,66.08
2023-04-27T04:05:40.915Z,66.18
2023-04-27T04:06:40.904Z,66.10
2023-04-27T04:07:40.944Z,66.03
2023-04-27T04:08:41.000Z,65.75
2023-04-27T04:09:41.070Z,65.87
2023-04-27T04:10:41.071Z,65.48
2023-04-27T04:11:41.123Z,65.75
2023-04-27T04:12:41.139Z,65.78
2023-04-27T04:13:41.176Z,65.83
2023-04-27T04:14:41.193Z,65.98
2023-04-27T04:15:41.276Z,65.91
2023-04-27T04:16:41.269Z,65.71
2023-04-27T04:17:41.393Z,66.45
2023-04-27T04:18:41.333Z,66.52
2023-04-27T04:19:41.424Z,66.19
2023-04-27T04:20:41.426Z,66.20
2023-04-27T04:21:41.440Z,66.69
2023-04-27T04:22:41.471Z,67.32
2023-04-27T04:23:41.460Z,67.36
2023-04-27T04:24:41.557Z,67.73
2023-04-27T04:25:41.656Z,68.09
2023-04-27T04:26:41.606Z,67.89
2023-04-27T04:27:41.658Z,68.44
2023-04-27T04:28:41.697Z,68.90
2023-04-27T04:29:41.717Z,69.24
2023-04-27T04:30:41.790Z,69.68
2023-04-27T04:31:41.827Z,69.60
2023-04-27T04:32:41.838Z,69.27
2023-04-27T04:33:41.820Z,69.44
2023-04-27T04:34:41.881Z,70.26
2023-04-27T04:35:41.888Z,71.07
2023-04-27T04:36:41.940Z,71.84
2023-04-27T04:37:42.054Z,72.61
2023-04-27T04:38:41.987Z,73.06
2023-04-27T04:39:42.003Z,72.69
2023-04-27T04:40:43.222Z,72.91
2023-04-27T04:41:42.068Z,72.90
2023-04-27T04:42:42.086Z,72.76
2023-04-27T04:43:42.033Z,72.40
2023-04-27T04:44:42.057Z,72.78
2023-04-27T04:45:42.079Z,73.70
2023-04-27T04:46:42.092Z,73.86
2023-04-27T04:47:42.064Z,74.37
2023-04-27T04:48:42.062Z,73.97
2023-04-27T04:49:42.387Z,73.80
2023-04-27T04:50:42.098Z,74.27
2023-04-27T04:51:42.051Z,74.60
2023-04-27T04:52:42.024Z,74.24
2023-04-27T04:53:41.963Z,74.76
2023-04-27T04:54:41.949Z,74.58
2023-04-27T04:55:42.082Z,74.61
2023-04-27T04:56:41.966Z,74.55
2023-04-27T04:57:41.966Z,74.44
2023-04-27T04:58:41.979Z,73.66
2023-04-27T04:59:41.943Z,74.01
2023-04-27T05:00:41.905Z,73.12
2023-04-27T05:01:41.929Z,73.37
2023-04-27T05:02:43.624Z,73.65
2023-04-27T05:03:42.025Z,73.77
2023-04-27T05:04:41.935Z,74.00
2023-04-27T05:05:41.880Z,74.12
2023-04-27T05:06:41.867Z,74.11
2023-04-27T05:07:41.881Z,74.37
2023-04-27T05:08:41.868Z,74.02
2023-04-27T05:09:41.839Z,73.94
2023-04-27T05:10:41.855Z,73.92
2023-04-27T05:11:41.812Z,74.00
2023-04-27T05:12:41.838Z,73.00
2023-04-27T05:13:41.827Z,72.69
2023-04-27T05:14:41.823Z,73.11
2023-04-27T05:15:41.795Z,72.93
2023-04-27T05:16:41.911Z,73.18
2023-04-27T05:17:41.834Z,73.22
2023-04-27T05:18:42.222Z,73.63
2023-04-27T05:19:41.783Z,73.03
2023-04-27T05:20:41.807Z,72.60
2023-04-27T05:21:41.839Z,71.59
2023-04-27T05:22:41.851Z,71.96
2023-04-27T05:23:41.886Z,71.47
2023-04-27T05:24:41.942Z,72.04
2023-04-27T05:25:42.033Z,71.75
2023-04-27T05:26:41.978Z,72.86
2023-04-27T05:27:42.002Z,73.06
2023-04-27T05:28:42.035Z,73.21
2023-04-27T05:29:42.133Z,73.94
2023-04-27T05:30:42.097Z,74.45
2023-04-27T05:31:42.199Z,74.17
2023-04-27T05:32:42.149Z,74.07
2023-04-27T05:33:42.184Z,73.86
2023-04-27T05:34:42.230Z,73.78
2023-04-27T05:35:42.211Z,73.81
2023-04-27T05:36:42.268Z,73.98
2023-04-27T05:37:42.307Z,74.55
2023-04-27T05:38:42.323Z,74.64
2023-04-27T05:39:42.394Z,74.83
2023-04-27T05:40:42.345Z,73.57
2023-04-27T05:41:42.398Z,72.86
2023-04-27T05:42:42.459Z,72.62
2023-04-27T05:43:42.553Z,73.23
2023-04-27T05:44:42.549Z,71.98
2023-04-27T05:45:42.705Z,72.90
2023-04-27T05:46:42.671Z,72.73
2023-04-27T05:47:42.748Z,72.33
2023-04-27T05:48:42.785Z,72.38
2023-04-27T05:49:42.818Z,72.34
2023-04-27T05:50:42.807Z,72.97
2023-04-27T05:51:42.933Z,72.79
2023-04-27T05:52:42.926Z,73.21
2023-04-27T05:53:43.002Z,73.77
2023-04-27T05:54:43.003Z,74.63
2023-04-27T05:55:42.996Z,74.26
2023-04-27T05:56:43.042Z,74.32
2023-04-27T05:57:43.111Z,73.75
2023-04-27T05:58:43.108Z,73.78
2023-04-27T05:59:43.126Z,73.77
2023-04-27T06:00:43.121Z,73.53
2023-04-27T06:01:43.185Z,73.48
2023-04-27T06:02:43.426Z,73.63
2023-04-27T06:03:43.429Z,73.63
2023-04-27T06:04:51.283Z,73.52
2023-04-27T06:05:50.934Z,74.37
2023-04-27T06:06:43.291Z,74.54
2023-04-27T06:07:43.275Z,74.35
2023-04-27T06:08:44.052Z,73.89
2023-04-27T06:09:43.227Z,73.80
2023-04-27T06:10:43.284Z,73.87
2023-04-27T06:11:43.242Z,74.08
2023-04-27T06:12:45.760Z,74.16
2023-04-27T06:13:43.202Z,74.00
2023-04-27T06:14:50.823Z,74.01
2023-04-27T06:17:02.715Z,74.94
2023-04-27T06:18:02.778Z,74.83
2023-04-27T06:19:02.678Z,73.55
2023-04-27T06:20:02.688Z,73.66
2023-04-27T06:21:02.711Z,72.37
2023-04-27T06:22:02.727Z,72.65
2023-04-27T06:23:02.740Z,73.02
2023-04-27T06:24:04.297Z,72.68
2023-04-27T06:25:02.632Z,72.72
2023-04-27T06:26:02.679Z,71.73
2023-04-27T06:27:02.636Z,72.02
2023-04-27T06:28:02.611Z,72.04
2023-04-27T06:29:02.667Z,72.12
2023-04-27T06:30:02.716Z,71.31
2023-04-27T06:31:02.608Z,70.79
2023-04-27T06:32:02.725Z,71.87
2023-04-27T06:33:02.663Z,71.12
2023-04-27T06:34:02.633Z,71.69
2023-04-27T06:35:02.668Z,72.02
2023-04-27T06:36:02.682Z,73.02
2023-04-27T06:37:02.554Z,74.22
2023-04-27T06:38:02.953Z,73.64
2023-04-27T06:39:02.569Z,74.72
2023-04-27T06:40:02.653Z,73.58
2023-04-27T06:41:02.555Z,74.16
2023-04-27T06:42:02.576Z,73.43
2023-04-27T06:43:02.564Z,73.18
2023-04-27T06:44:02.551Z,73.26
2023-04-27T06:45:02.556Z,72.83
2023-04-27T06:46:02.578Z,72.50
2023-04-27T06:47:02.518Z,72.16
2023-04-27T06:48:02.854Z,72.11
2023-04-27T06:49:02.583Z,72.59
2023-04-27T06:50:02.638Z,72.44
2023-04-27T06:51:03.321Z,71.97
2023-04-27T06:52:02.887Z,72.68
2023-04-27T06:53:02.738Z,72.45
2023-04-27T06:54:02.726Z,72.18
2023-04-27T06:55:02.679Z,72.43
2023-04-27T06:56:02.790Z,72.62
2023-04-27T06:57:02.734Z,72.66
2023-04-27T06:58:02.757Z,71.14
2023-04-27T06:59:02.781Z,71.63
2023-04-27T07:00:02.827Z,70.05
2023-04-27T07:01:02.876Z,70.84
2023-04-27T07:02:02.937Z,72.44
2023-04-27T07:03:03.479Z,72.45
2023-04-27T07:04:02.991Z,72.18
2023-04-27T07:05:03.229Z,70.63
2023-04-27T07:06:03.176Z,71.93
2023-04-27T07:07:03.052Z,71.32
2023-04-27T07:08:05.425Z,72.23
2023-04-27T07:09:06.014Z,72.43
2023-04-27T07:10:04.070Z,72.84
2023-04-27T07:12:22.641Z,70.26
2023-04-27T07:13:22.591Z,70.99
2023-04-27T07:14:22.623Z,70.56
2023-04-27T07:15:22.616Z,71.22
2023-04-27T07:16:22.654Z,70.57
2023-04-27T07:17:23.596Z,69.15
2023-04-27T07:18:22.648Z,70.00
2023-04-27T07:19:22.602Z,70.05
2023-04-27T07:20:22.628Z,69.61
2023-04-27T07:21:22.624Z,70.54
2023-04-27T07:22:22.570Z,70.15
2023-04-27T07:23:22.734Z,71.00
2023-04-27T07:24:22.611Z,70.35
2023-04-27T07:25:22.662Z,70.51
2023-04-27T07:26:22.557Z,69.06
2023-04-27T07:27:22.591Z,68.72
2023-04-27T07:28:22.643Z,68.66
2023-04-27T07:29:27.140Z,69.38
2023-04-27T07:30:22.560Z,69.12
2023-04-27T07:31:22.649Z,68.47
2023-04-27T07:32:22.729Z,68.88
2023-04-27T07:33:22.609Z,68.26
2023-04-27T07:34:22.539Z,67.79
2023-04-27T07:35:22.516Z,67.96
2023-04-27T07:36:23.106Z,68.71
2023-04-27T07:37:22.558Z,67.27
2023-04-27T07:38:22.500Z,67.72
2023-04-27T07:39:22.532Z,67.07
2023-04-27T07:40:22.489Z,67.24
2023-04-27T07:41:22.472Z,66.36
2023-04-27T07:42:22.629Z,66.49
2023-04-27T07:43:23.144Z,65.76
2023-04-27T07:44:22.453Z,66.57
2023-04-27T07:45:23.543Z,67.09
2023-04-27T07:46:22.583Z,66.75
2023-04-27T07:47:22.567Z,66.66
2023-04-27T07:48:22.685Z,66.97
2023-04-27T07:49:22.903Z,66.81
2023-04-27T07:50:22.596Z,67.47
2023-04-27T07:51:22.609Z,67.23
2023-04-27T07:52:22.687Z,65.91
2023-04-27T07:53:22.617Z,65.24
2023-04-27T07:54:22.696Z,64.95
2023-04-27T07:55:22.685Z,64.75
2023-04-27T07:56:22.702Z,65.34
2023-04-27T07:57:22.740Z,66.69
2023-04-27T07:58:22.744Z,66.45
2023-04-27T07:59:22.719Z,66.11
2023-04-27T08:00:22.877Z,67.36
2023-04-27T08:01:22.948Z,67.74
2023-04-27T08:02:23.072Z,66.50
2023-04-27T08:03:23.393Z,66.39
2023-04-27T08:04:23.217Z,67.30
2023-04-27T08:05:23.777Z,67.90
2023-04-27T08:06:23.604Z,66.48
2023-04-27T08:07:24.091Z,66.60
2023-04-27T08:08:23.142Z,66.36
2023-04-27T08:09:23.043Z,65.58
2023-04-27T08:10:23.027Z,66.18
2023-04-27T08:11:23.088Z,66.29
2023-04-27T08:12:23.128Z,65.82
2023-04-27T08:13:24.816Z,66.45
2023-04-27T08:14:23.225Z,65.54
2023-04-27T08:15:23.264Z,65.56
2023-04-27T08:16:23.330Z,64.62
2023-04-27T08:17:23.379Z,63.70
2023-04-27T08:18:23.367Z,64.13
2023-04-27T08:19:23.318Z,64.36
2023-04-27T08:20:23.490Z,64.49
2023-04-27T08:21:23.436Z,64.40
2023-04-27T08:22:23.482Z,64.03
2023-04-27T08:23:23.656Z,64.24
2023-04-27T08:24:23.518Z,63.24
2023-04-27T08:25:23.593Z,63.66
2023-04-27T08:26:25.605Z,62.76
2023-04-27T08:27:23.613Z,62.91
2023-04-27T08:28:23.562Z,60.10
2023-04-27T08:29:27.992Z,61.10
2023-04-27T08:30:24.554Z,60.92
2023-04-27T08:31:23.549Z,61.00
2023-04-27T08:32:24.119Z,62.05
2023-04-27T08:33:23.722Z,61.28
2023-04-27T08:34:23.697Z,61.74
2023-04-27T08:35:23.514Z,61.98
2023-04-27T08:36:23.516Z,60.25
2023-04-27T08:37:23.432Z,60.87
2023-04-27T08:38:25.585Z,61.31
2023-04-27T08:39:23.460Z,62.42
2023-04-27T08:40:23.508Z,63.24
2023-04-27T08:41:23.430Z,63.49
2023-04-27T08:42:23.486Z,62.35
2023-04-27T08:43:23.542Z,61.55
2023-04-27T08:44:23.572Z,63.52
2023-04-27T08:45:23.580Z,61.56
2023-04-27T08:46:23.687Z,60.78
2023-04-27T08:47:31.398Z,62.52
2023-04-27T08:48:24.684Z,61.68
2023-04-27T08:49:23.722Z,61.63
2023-04-27T08:50:23.602Z,60.75
2023-04-27T08:51:23.576Z,59.69
2023-04-27T08:52:23.631Z,60.07
2023-04-27T08:53:23.553Z,60.72
2023-04-27T08:54:23.567Z,62.34
2023-04-27T08:55:23.549Z,62.46
2023-04-27T08:56:23.535Z,62.56
2023-04-27T08:57:23.582Z,63.67
2023-04-27T08:58:23.566Z,63.66
2023-04-27T08:59:23.619Z,63.58
2023-04-27T09:00:23.543Z,63.14
2023-04-27T09:01:23.598Z,61.55
2023-04-27T09:02:23.599Z,60.63
2023-04-27T09:03:23.827Z,58.43
2023-04-27T09:04:24.025Z,58.50
2023-04-27T09:05:23.759Z,58.52
2023-04-27T09:06:23.766Z,61.09
2023-04-27T09:07:23.780Z,60.43
2023-04-27T09:08:23.816Z,60.19
2023-04-27T09:09:23.922Z,59.90
2023-04-27T09:10:23.861Z,60.09
2023-04-27T09:11:23.868Z,60.20
2023-04-27T09:12:23.876Z,60.25
2023-04-27T09:13:23.879Z,59.69
2023-04-27T09:14:23.910Z,59.48
2023-04-27T09:15:23.946Z,61.32
2023-04-27T09:16:24.063Z,60.20
2023-04-27T09:17:23.981Z,61.38
2023-04-27T09:18:24.051Z,61.34
2023-04-27T09:19:24.059Z,58.97
2023-04-27T09:20:24.105Z,59.08
2023-04-27T09:21:24.149Z,58.02
2023-04-27T09:22:24.182Z,55.56
2023-04-27T09:23:24.188Z,55.98
2023-04-27T09:24:24.165Z,56.28
2023-04-27T09:25:24.173Z,55.75
2023-04-27T09:26:24.251Z,55.05
2023-04-27T09:27:24.262Z,53.78
2023-04-27T09:28:24.321Z,55.15
2023-04-27T09:29:24.312Z,55.75
2023-04-27T09:30:24.311Z,57.35
2023-04-27T09:31:24.433Z,59.43
2023-04-27T09:32:24.498Z,60.25
2023-04-27T09:33:24.486Z,58.93
2023-04-27T09:34:24.505Z,56.05
2023-04-27T09:35:24.558Z,55.53
2023-04-27T09:36:25.010Z,54.67
2023-04-27T09:37:24.549Z,55.05
2023-04-27T09:38:24.582Z,53.51
2023-04-27T09:39:24.646Z,54.14
2023-04-27T09:40:24.648Z,54.84
2023-04-27T09:41:24.676Z,54.25
2023-04-27T09:42:24.704Z,52.22
2023-04-27T09:43:24.691Z,51.21
2023-04-27T09:44:25.185Z,50.53
2023-04-27T09:45:24.798Z,50.14
2023-04-27T09:46:24.867Z,46.96
2023-04-27T09:47:25.019Z,46.94
2023-04-27T09:48:24.868Z,49.56
2023-04-27T09:49:25.160Z,49.77
2023-04-27T09:50:24.927Z,49.46
2023-04-27T09:51:24.998Z,49.54
2023-04-27T09:52:25.074Z,48.26
2023-04-27T09:53:25.684Z,47.70
2023-04-27T09:54:25.215Z,49.26
2023-04-27T09:55:25.083Z,48.62
2023-04-27T09:56:25.151Z,47.97
2023-04-27T09:57:25.113Z,46.91
2023-04-27T09:58:25.189Z,47.49
2023-04-27T09:59:25.280Z,47.94
2023-04-27T10:00:25.236Z,45.28
2023-04-27T10:01:25.403Z,46.42
2023-04-27T10:02:25.978Z,48.12
2023-04-27T10:03:25.444Z,48.54
2023-04-27T10:04:25.739Z,50.46
2023-04-27T10:05:25.382Z,49.87
2023-04-27T10:06:25.380Z,48.63
2023-04-27T10:07:25.446Z,48.24
2023-04-27T10:08:25.491Z,48.39
2023-04-27T10:09:25.589Z,46.91
2023-04-27T10:10:25.506Z,48.19
2023-04-27T10:11:26.172Z,49.42
2023-04-27T10:12:25.768Z,50.17
2023-04-27T10:13:25.735Z,48.06
2023-04-27T10:14:25.703Z,47.31
2023-04-27T10:15:25.762Z,46.76
2023-04-27T10:16:25.872Z,45.38
2023-04-27T10:17:25.808Z,44.69
2023-04-27T10:18:26.163Z,45.87
2023-04-27T10:19:25.906Z,47.60
2023-04-27T10:20:25.906Z,46.90
2023-04-27T10:21:25.912Z,47.19
2023-04-27T10:22:25.957Z,49.82
2023-04-27T10:23:25.961Z,49.91
2023-04-27T10:24:26.026Z,49.51
2023-04-27T10:25:26.037Z,48.62
2023-04-27T10:26:26.080Z,48.76
2023-04-27T10:27:26.046Z,48.59
2023-04-27T10:28:26.111Z,48.04
2023-04-27T10:29:26.197Z,47.22
2023-04-27T10:30:26.211Z,49.00
2023-04-27T10:31:26.283Z,51.19
2023-04-27T10:32:26.355Z,52.53
2023-04-27T10:33:26.306Z,52.89
2023-04-27T10:34:26.360Z,51.11
2023-04-27T10:35:26.477Z,50.06
2023-04-27T10:36:26.470Z,48.66
2023-04-27T10:37:26.449Z,47.82
2023-04-27T10:38:26.382Z,46.53
2023-04-27T10:39:39.707Z,47.20
2023-04-27T10:40:27.430Z,46.08
2023-04-27T10:41:26.397Z,43.61
2023-04-27T10:42:26.412Z,43.26
2023-04-27T10:43:26.410Z,43.08
2023-04-27T10:44:26.663Z,43.19
2023-04-27T10:45:27.493Z,42.47
2023-04-27T10:46:26.426Z,41.91
2023-04-27T10:47:26.377Z,43.38
2023-04-27T10:48:26.424Z,45.50
2023-04-27T10:49:26.337Z,43.82
2023-04-27T10:50:26.424Z,43.55
2023-04-27T10:51:26.361Z,43.52
2023-04-27T10:52:26.348Z,43.01
2023-04-27T10:53:26.296Z,41.30
2023-04-27T10:54:26.334Z,41.96
2023-04-27T10:55:26.303Z,41.67
2023-04-27T10:56:26.285Z,43.15
2023-04-27T10:57:26.296Z,42.27
2023-04-27T10:58:34.644Z,41.21
2023-04-27T10:59:27.275Z,39.62
2023-04-27T11:00:26.317Z,40.08
2023-04-27T11:01:26.313Z,40.36
2023-04-27T11:02:26.385Z,41.16
2023-04-27T11:03:26.294Z,40.42
2023-04-27T11:04:26.277Z,39.51
2023-04-27T11:05:26.304Z,41.58
2023-04-27T11:06:26.259Z,42.83
2023-04-27T11:07:26.368Z,42.28
2023-04-27T11:08:26.260Z,44.19
2023-04-27T11:09:26.291Z,43.26
2023-04-27T11:10:26.263Z,42.40
2023-04-27T11:11:26.357Z,41.90
2023-04-27T11:12:26.328Z,40.85
2023-04-27T11:13:26.356Z,40.58
2023-04-27T11:14:26.392Z,41.09
2023-04-27T11:15:26.410Z,40.70
2023-04-27T11:16:26.563Z,40.64
2023-04-27T11:17:26.512Z,39.48
2023-04-27T11:18:26.644Z,40.89
2023-04-27T11:19:26.642Z,40.29
2023-04-27T11:20:26.710Z,40.67
2023-04-27T11:21:26.630Z,38.84
2023-04-27T11:22:26.679Z,39.33
2023-04-27T11:23:26.750Z,39.13
2023-04-27T11:24:26.742Z,37.77
2023-04-27T11:25:26.788Z,39.11
2023-04-27T11:26:26.896Z,40.36
2023-04-27T11:27:26.894Z,40.33
2023-04-27T11:28:26.867Z,40.81
2023-04-27T11:29:27.208Z,39.95
2023-04-27T11:30:26.998Z,39.36
2023-04-27T11:31:27.032Z,38.92
2023-04-27T11:32:27.015Z,38.51
2023-04-27T11:33:27.080Z,38.55
2023-04-27T11:34:27.161Z,39.32
2023-04-27T11:35:27.035Z,39.28
2023-04-27T11:36:27.089Z,40.60
2023-04-27T11:37:27.150Z,42.39
2023-04-27T11:38:27.145Z,43.24
2023-04-27T11:39:27.269Z,43.10
2023-04-27T11:40:27.232Z,42.61
2023-04-27T11:41:27.209Z,42.71
2023-04-27T11:42:27.292Z,44.59
2023-04-27T11:43:27.311Z,46.47
2023-04-27T11:44:27.329Z,45.95
2023-04-27T11:45:27.317Z,44.90
2023-04-27T11:46:27.361Z,44.32
2023-04-27T11:47:27.459Z,43.35
2023-04-27T11:48:27.431Z,41.91
2023-04-27T11:49:27.498Z,43.50
2023-04-27T11:50:27.560Z,43.42
2023-04-27T11:51:27.600Z,43.20
2023-04-27T11:52:27.608Z,41.94
2023-04-27T11:53:27.660Z,41.89
2023-04-27T11:54:27.737Z,41.22
2023-04-27T11:55:27.807Z,39.50
2023-04-27T11:56:27.812Z,39.74
2023-04-27T11:57:27.789Z,37.87
2023-04-27T11:58:27.830Z,36.67
2023-04-27T11:59:27.823Z,36.83
2023-04-27T12:00:27.874Z,38.65
2023-04-27T12:01:36.950Z,38.61
2023-04-27T12:02:29.098Z,39.79
2023-04-27T12:03:28.179Z,40.81
2023-04-27T12:04:28.064Z,40.69
2023-04-27T12:05:28.019Z,42.28
2023-04-27T12:06:33.006Z,41.97
2023-04-27T12:07:28.837Z,41.99
2023-04-27T12:08:27.871Z,40.20
2023-04-27T12:09:27.887Z,38.43
2023-04-27T12:10:27.840Z,37.63
2023-04-27T12:11:27.844Z,37.38
2023-04-27T12:12:27.818Z,37.54
2023-04-27T12:13:27.849Z,37.59
2023-04-27T12:14:27.820Z,38.02
2023-04-27T12:15:27.817Z,37.37
2023-04-27T12:16:27.810Z,36.93
2023-04-27T12:17:27.837Z,36.34
2023-04-27T12:18:27.790Z,35.89
2023-04-27T12:19:27.761Z,34.49
2023-04-27T12:20:27.857Z,34.55
2023-04-27T12:21:27.867Z,35.95
2023-04-27T12:22:27.875Z,37.13
2023-04-27T12:23:27.869Z,37.66
2023-04-27T12:24:27.920Z,38.79
2023-04-27T12:25:27.992Z,39.53
2023-04-27T12:26:28.015Z,40.27
2023-04-27T12:27:28.037Z,40.57
2023-04-27T12:28:28.054Z,41.23
2023-04-27T12:29:28.053Z,39.68
2023-04-27T12:30:28.078Z,39.39
2023-04-27T12:31:28.246Z,38.94
2023-04-27T12:32:28.154Z,39.18
2023-04-27T12:33:28.201Z,39.58
2023-04-27T12:34:28.494Z,39.00
2023-04-27T12:35:28.283Z,38.04
2023-04-27T12:36:28.251Z,37.67
2023-04-27T12:37:28.293Z,37.39
2023-04-27T12:38:28.358Z,37.10
2023-04-27T12:39:28.395Z,37.58
2023-04-27T12:40:28.483Z,37.22
2023-04-27T12:41:28.459Z,37.27
2023-04-27T12:42:28.438Z,37.62
2023-04-27T12:43:28.536Z,37.37
2023-04-27T12:44:28.512Z,36.85
2023-04-27T12:45:28.595Z,36.17
2023-04-27T12:46:28.608Z,37.26
2023-04-27T12:48:29.605Z,37.53
2023-04-27T12:49:28.606Z,38.35
2023-04-27T12:50:28.613Z,38.38
2023-04-27T12:51:28.581Z,38.39
2023-04-27T12:52:28.576Z,38.61
2023-04-27T12:53:28.588Z,38.43
2023-04-27T12:54:28.613Z,37.80
2023-04-27T12:56:28.537Z,40.59
2023-04-27T12:57:28.522Z,40.65